createdAt,value
2018-11-10T00:00:19.236Z,77.87
2018-11-10T00:02:48.410Z,78.10
2018-11-10T00:05:17.132Z,78.67
2018-11-10T00:07:45.516Z,78.50
2018-11-10T00:10:13.883Z,78.66
2018-11-10T00:12:42.196Z,78.65
2018-11-10T00:15:12.439Z,78.08
2018-11-10T00:17:41.567Z,77.56
2018-11-10T00:20:10.286Z,76.82
2018-11-10T00:22:39.755Z,77.48
2018-11-10T00:25:10.728Z,77.81
2018-11-10T00:27:39.076Z,77.16
2018-11-10T00:30:09.227Z,76.86
2018-11-10T00:32:37.548Z,76.27
2018-11-10T00:35:06.183Z,76.58
2018-11-10T00:37:35.015Z,76.96
2018-11-10T00:40:03.659Z,76.54
2018-11-10T00:42:31.987Z,77.01
2018-11-10T00:45:00.302Z,76.70
2018-11-10T00:47:28.638Z,78.00
2018-11-10T00:49:56.980Z,77.92
2018-11-10T00:52:25.324Z,78.05
2018-11-10T00:54:53.759Z,78.77
2018-11-10T00:57:22.072Z,78.56
2018-11-10T00:59:50.422Z,78.79
2018-11-10T01:02:18.751Z,79.32
2018-11-10T01:04:47.075Z,79.33
2018-11-10T01:07:15.379Z,79.89
2018-11-10T01:09:43.740Z,79.76
2018-11-10T01:12:12.539Z,79.51
2018-11-10T01:14:40.864Z,80.37
2018-11-10T01:17:09.179Z,80.03
2018-11-10T01:19:37.539Z,79.86
2018-11-10T01:22:06.303Z,79.96
2018-11-10T01:24:34.655Z,79.61
2018-11-10T01:27:02.965Z,79.31
2018-11-10T01:29:31.296Z,79.63
2018-11-10T01:31:59.615Z,79.81
2018-11-10T01:34:27.931Z,79.34
2018-11-10T01:36:56.251Z,78.88
2018-11-10T01:39:24.595Z,79.43
2018-11-10T01:41:52.903Z,79.11
2018-11-10T01:44:21.255Z,79.33
2018-11-10T01:46:49.547Z,80.27
2018-11-10T01:49:17.920Z,80.42
2018-11-10T01:51:46.239Z,80.08
2018-11-10T01:54:14.663Z,80.77
2018-11-10T01:56:42.991Z,80.76
2018-11-10T01:59:11.303Z,80.67
2018-11-10T02:01:39.619Z,80.87
2018-11-10T02:04:07.923Z,80.97
2018-11-10T02:06:36.331Z,81.15
2018-11-10T02:09:06.749Z,81.63
2018-11-10T02:11:35.351Z,81.74
2018-11-10T02:14:03.755Z,81.44
2018-11-10T02:16:32.071Z,81.75
2018-11-10T02:19:00.380Z,81.70
2018-11-10T02:21:28.711Z,81.70
2018-11-10T02:23:57.059Z,81.73
2018-11-10T02:26:25.420Z,82.20
2018-11-10T02:28:53.754Z,82.51
2018-11-10T02:31:22.067Z,82.40
2018-11-10T02:33:50.388Z,82.57
2018-11-10T02:36:18.724Z,82.88
2018-11-10T02:38:47.074Z,82.37
2018-11-10T02:41:15.355Z,82.40
2018-11-10T02:43:43.719Z,82.60
2018-11-10T02:46:12.083Z,82.66
2018-11-10T02:48:40.399Z,82.23
2018-11-10T02:51:08.711Z,82.65
2018-11-10T02:53:36.996Z,83.51
2018-11-10T02:56:05.523Z,83.32
2018-11-10T02:58:33.831Z,83.09
2018-11-10T03:01:02.156Z,83.24
2018-11-10T03:03:30.472Z,83.22
2018-11-10T03:05:58.801Z,82.65
2018-11-10T03:08:27.135Z,81.71
2018-11-10T03:10:55.537Z,82.07
2018-11-10T03:13:36.859Z,82.01
2018-11-10T03:16:15.773Z,81.86
2018-11-10T03:18:47.794Z,80.91
2018-11-10T03:21:16.103Z,80.86
2018-11-10T03:23:44.387Z,81.29
2018-11-10T03:26:12.726Z,80.85
2018-11-10T03:28:41.019Z,81.17
2018-11-10T03:31:09.351Z,81.14
2018-11-10T03:33:37.675Z,80.51
2018-11-10T03:36:06.052Z,80.94
2018-11-10T03:38:34.347Z,80.26
2018-11-10T03:41:02.728Z,80.54
2018-11-10T03:43:31.944Z,81.18
2018-11-10T03:46:00.251Z,81.84
2018-11-10T03:48:28.560Z,82.12
2018-11-10T03:50:56.884Z,82.29
2018-11-10T03:53:25.187Z,81.92
2018-11-10T03:55:53.499Z,82.49
2018-11-10T03:58:21.774Z,83.03
2018-11-10T04:00:50.624Z,82.53
2018-11-10T04:03:18.943Z,83.19
2018-11-10T04:05:47.276Z,83.92
2018-11-10T04:08:15.570Z,84.71
2018-11-10T04:10:43.899Z,85.23
2018-11-10T04:13:12.216Z,85.32
2018-11-10T04:15:40.667Z,85.36
2018-11-10T04:18:08.976Z,84.21
2018-11-10T04:20:37.292Z,84.21
2018-11-10T04:23:06.530Z,84.78
2018-11-10T04:25:34.877Z,84.65
2018-11-10T04:28:03.191Z,83.58
2018-11-10T04:30:31.507Z,83.65
2018-11-10T04:32:59.803Z,84.34
2018-11-10T04:35:28.099Z,85.56
2018-11-10T04:37:56.415Z,85.35
2018-11-10T04:40:24.711Z,85.73
2018-11-10T04:42:53.015Z,86.39
2018-11-10T04:45:21.307Z,87.43
2018-11-10T04:47:49.635Z,87.17
2018-11-10T04:50:17.919Z,87.26
2018-11-10T04:52:46.247Z,87.56
2018-11-10T04:55:14.551Z,88.35
2018-11-10T04:57:42.883Z,88.10
2018-11-10T05:00:14.191Z,86.99
2018-11-10T05:02:43.111Z,87.37
2018-11-10T05:05:11.408Z,86.51
2018-11-10T05:07:39.739Z,86.00
2018-11-10T05:10:09.031Z,85.40
2018-11-10T05:12:37.374Z,84.37
2018-11-10T05:15:06.943Z,84.34
2018-11-10T05:17:35.259Z,84.43
2018-11-10T05:20:03.651Z,84.33
2018-11-10T05:22:31.992Z,83.92
2018-11-10T05:25:00.295Z,83.14
2018-11-10T05:27:28.715Z,82.88
2018-11-10T05:29:57.239Z,82.66
2018-11-10T05:32:25.558Z,82.76
2018-11-10T05:34:53.943Z,81.82
2018-11-10T05:37:22.262Z,81.23
2018-11-10T05:39:50.544Z,82.00
2018-11-10T05:42:19.040Z,82.41
2018-11-10T05:44:47.349Z,83.59
2018-11-10T05:47:15.783Z,84.65
2018-11-10T05:49:44.071Z,84.38
2018-11-10T05:52:12.387Z,84.28
2018-11-10T05:54:40.695Z,83.43
2018-11-10T05:57:09.039Z,84.03
2018-11-10T05:59:37.343Z,83.35
2018-11-10T06:02:05.963Z,83.67
2018-11-10T06:04:34.263Z,83.65
2018-11-10T06:07:02.631Z,83.67
2018-11-10T06:09:31.012Z,83.82
2018-11-10T06:11:59.666Z,84.18
2018-11-10T06:14:27.959Z,84.25
2018-11-10T06:16:56.271Z,83.49
2018-11-10T06:19:24.647Z,83.31
2018-11-10T06:21:52.947Z,82.71
2018-11-10T06:24:21.256Z,82.01
2018-11-10T06:26:49.579Z,81.49
2018-11-10T06:29:17.875Z,81.27
2018-11-10T06:31:46.199Z,81.20
2018-11-10T06:34:14.502Z,81.09
2018-11-10T06:36:42.866Z,80.98
2018-11-10T06:39:12.148Z,81.97
2018-11-10T06:41:40.735Z,82.08
2018-11-10T06:44:09.047Z,83.23
2018-11-10T06:46:37.885Z,82.80
2018-11-10T06:49:06.795Z,83.21
2018-11-10T06:51:35.095Z,83.40
2018-11-10T06:54:03.428Z,84.09
2018-11-10T06:56:31.759Z,83.37
2018-11-10T06:59:00.084Z,82.89
2018-11-10T07:01:28.415Z,82.25
2018-11-10T07:03:56.777Z,82.93
2018-11-10T07:06:25.062Z,82.59
2018-11-10T07:08:53.366Z,82.60
2018-11-10T07:11:21.659Z,82.43
2018-11-10T07:13:50.102Z,82.24
2018-11-10T07:16:18.387Z,81.89
2018-11-10T07:18:46.695Z,82.20
2018-11-10T07:21:14.987Z,82.11
2018-11-10T07:23:43.315Z,82.46
2018-11-10T07:26:11.604Z,82.51
2018-11-10T07:28:39.923Z,84.46
2018-11-10T07:31:08.224Z,85.02
2018-11-10T07:33:38.858Z,84.84
2018-11-10T07:36:07.187Z,86.32
2018-11-10T07:38:35.499Z,86.91
2018-11-10T07:41:03.823Z,87.37
2018-11-10T07:43:32.168Z,87.24
2018-11-10T07:46:00.476Z,88.09
2018-11-10T07:48:28.783Z,87.37
2018-11-10T07:50:57.070Z,87.62
2018-11-10T07:53:25.403Z,87.84
2018-11-10T07:55:53.896Z,87.88
2018-11-10T07:58:22.160Z,87.75
2018-11-10T08:00:50.446Z,88.34
2018-11-10T08:03:18.793Z,87.41
2018-11-10T08:05:47.102Z,86.85
2018-11-10T08:08:15.419Z,87.04
2018-11-10T08:10:43.727Z,86.81
2018-11-10T08:13:12.035Z,86.25
2018-11-10T08:15:40.371Z,86.35
2018-11-10T08:18:08.707Z,86.62
2018-11-10T08:20:37.031Z,86.97
2018-11-10T08:23:05.416Z,87.40
2018-11-10T08:25:33.748Z,87.81
2018-11-10T08:28:02.071Z,88.18
2018-11-10T08:30:30.411Z,87.41
2018-11-10T08:32:59.139Z,87.45
2018-11-10T08:35:27.491Z,87.13
2018-11-10T08:37:55.803Z,87.02
2018-11-10T08:40:24.116Z,88.60
2018-11-10T08:42:52.419Z,88.16
2018-11-10T08:45:20.750Z,87.19
2018-11-10T08:47:49.046Z,87.49
2018-11-10T08:50:17.903Z,86.95
2018-11-10T08:52:46.222Z,86.49
2018-11-10T08:55:14.776Z,86.74
2018-11-10T08:57:43.821Z,84.92
2018-11-10T09:00:12.464Z,83.03
2018-11-10T09:02:40.824Z,82.12
2018-11-10T09:05:10.431Z,81.27
2018-11-10T09:07:38.726Z,83.11
2018-11-10T09:10:08.516Z,81.27
2018-11-10T09:12:36.877Z,82.58
2018-11-10T09:15:06.815Z,82.58
2018-11-10T09:17:35.088Z,82.21
2018-11-10T09:20:03.438Z,81.90
2018-11-10T09:22:32.273Z,80.89
2018-11-10T09:25:00.591Z,82.65
2018-11-10T09:27:28.904Z,83.84
2018-11-10T09:29:57.243Z,83.28
2018-11-10T09:32:25.586Z,84.09
2018-11-10T09:34:53.919Z,84.18
2018-11-10T09:37:22.229Z,84.78
2018-11-10T09:39:50.539Z,84.90
2018-11-10T09:42:18.929Z,84.50
2018-11-10T09:44:47.583Z,84.05
2018-11-10T09:47:16.067Z,85.13
2018-11-10T09:49:44.392Z,83.99
2018-11-10T09:52:12.720Z,82.93
2018-11-10T09:54:41.023Z,83.97
2018-11-10T09:57:09.351Z,83.36
2018-11-10T09:59:37.658Z,83.89
2018-11-10T10:02:06.610Z,83.77
2018-11-10T10:04:34.587Z,85.56
2018-11-10T10:07:03.830Z,85.23
2018-11-10T10:09:32.131Z,85.41
2018-11-10T10:12:00.444Z,85.53
2018-11-10T10:14:28.755Z,86.17
2018-11-10T10:16:57.069Z,85.07
2018-11-10T10:19:25.390Z,84.59
2018-11-10T10:21:53.782Z,84.82
2018-11-10T10:24:22.043Z,85.32
2018-11-10T10:26:50.355Z,83.32
2018-11-10T10:29:18.685Z,83.65
2018-11-10T10:31:47.007Z,82.47
2018-11-10T10:34:15.366Z,81.37
2018-11-10T10:36:43.647Z,78.40
2018-11-10T10:39:11.939Z,75.89
2018-11-10T10:41:40.359Z,76.86
2018-11-10T10:44:09.688Z,74.86
2018-11-10T10:46:38.040Z,75.18
2018-11-10T10:49:06.612Z,77.81
2018-11-10T10:51:35.339Z,79.51
2018-11-10T10:54:03.659Z,79.51
2018-11-10T10:56:32.054Z,81.01
2018-11-10T10:59:00.315Z,81.80
2018-11-10T11:01:33.938Z,81.90
2018-11-10T11:04:07.445Z,81.26
2018-11-10T11:06:35.752Z,80.77
2018-11-10T11:09:04.603Z,80.17
2018-11-10T11:11:32.892Z,79.25
2018-11-10T11:14:01.221Z,76.50
2018-11-10T11:16:29.947Z,75.40
2018-11-10T11:18:58.583Z,70.00
2018-11-10T11:21:26.880Z,76.70
2018-11-10T11:23:55.196Z,75.70
2018-11-10T11:26:24.129Z,76.27
2018-11-10T11:28:52.440Z,74.11
2018-11-10T11:31:20.744Z,74.67
2018-11-10T11:33:49.103Z,71.15
2018-11-10T11:36:17.400Z,72.11
2018-11-10T11:38:45.727Z,68.80
2018-11-10T11:41:14.969Z,72.20
2018-11-10T11:43:43.149Z,74.99
2018-11-10T11:46:11.560Z,75.24
2018-11-10T11:48:39.992Z,73.01
2018-11-10T11:51:08.313Z,74.74
2018-11-10T11:53:36.635Z,73.58
2018-11-10T11:56:05.267Z,75.28
2018-11-10T11:58:33.588Z,72.13
2018-11-10T12:01:01.896Z,69.13
2018-11-10T12:03:30.216Z,65.46
2018-11-10T12:05:58.531Z,58.28
2018-11-10T12:08:26.847Z,59.60
2018-11-10T12:10:55.149Z,65.77
2018-11-10T12:13:23.464Z,71.93
2018-11-10T12:15:51.819Z,74.84
2018-11-10T12:18:20.162Z,77.40
2018-11-10T12:20:48.517Z,78.27
2018-11-10T12:23:16.780Z,79.14
2018-11-10T12:25:45.067Z,78.51
2018-11-10T12:28:13.631Z,79.64
2018-11-10T12:30:41.963Z,79.49
2018-11-10T12:33:10.287Z,80.38
2018-11-10T12:35:38.579Z,79.90
2018-11-10T12:38:07.579Z,80.94
2018-11-10T12:40:35.903Z,79.94
2018-11-10T12:43:04.236Z,79.92
2018-11-10T12:45:32.588Z,80.01
2018-11-10T12:48:01.345Z,81.22
2018-11-10T12:50:29.648Z,81.09
2018-11-10T12:52:57.962Z,81.67
2018-11-10T12:55:26.297Z,82.79
2018-11-10T12:57:54.639Z,83.34
2018-11-10T13:00:22.944Z,84.24
2018-11-10T13:02:51.275Z,84.81
2018-11-10T13:05:19.600Z,86.17
2018-11-10T13:07:48.287Z,86.73
2018-11-10T13:10:16.617Z,87.31
2018-11-10T13:12:45.312Z,88.56
2018-11-10T13:15:13.626Z,89.51
2018-11-10T13:17:41.998Z,89.34
2018-11-10T13:20:12.548Z,90.14
2018-11-10T13:22:40.835Z,90.93
2018-11-10T13:25:10.235Z,91.92
2018-11-10T13:27:38.663Z,91.31
2018-11-10T13:30:08.668Z,90.47
2018-11-10T13:32:37.000Z,91.15
2018-11-10T13:35:06.266Z,90.24
2018-11-10T13:37:34.658Z,90.05
2018-11-10T13:40:03.015Z,90.29
2018-11-10T13:42:31.382Z,90.36
2018-11-10T13:44:59.651Z,90.96
2018-11-10T13:47:27.950Z,90.83
2018-11-10T13:49:56.275Z,90.71
2018-11-10T13:52:24.905Z,91.19
2018-11-10T13:54:53.226Z,90.26
2018-11-10T13:57:21.547Z,91.21
2018-11-10T13:59:50.259Z,90.87
2018-11-10T14:02:18.566Z,91.49
2018-11-10T14:04:46.856Z,91.62
2018-11-10T14:07:15.165Z,91.01
2018-11-10T14:09:43.476Z,92.32
2018-11-10T14:12:11.783Z,91.39
2018-11-10T14:14:40.067Z,92.18
2018-11-10T14:17:08.705Z,92.70
2018-11-10T14:19:37.116Z,92.07
2018-11-10T14:22:05.604Z,92.64
2018-11-10T14:24:33.896Z,91.91
2018-11-10T14:27:02.232Z,91.54
2018-11-10T14:29:30.511Z,92.26
2018-11-10T14:31:58.832Z,91.16
2018-11-10T14:34:27.325Z,91.21
2018-11-10T14:36:55.629Z,91.43
2018-11-10T14:39:23.939Z,92.39
2018-11-10T14:41:52.571Z,92.41
2018-11-10T14:44:20.884Z,92.20
2018-11-10T14:46:49.193Z,92.11
2018-11-10T14:49:17.515Z,92.02
2018-11-10T14:51:45.832Z,92.14
2018-11-10T14:54:14.139Z,92.19
2018-11-10T14:56:42.471Z,91.69
2018-11-10T14:59:10.763Z,93.02
2018-11-10T15:01:39.095Z,92.04
2018-11-10T15:04:07.423Z,92.98
2018-11-10T15:06:35.748Z,92.83
2018-11-10T15:09:04.919Z,92.62
2018-11-10T15:11:33.680Z,92.26
2018-11-10T15:14:01.925Z,92.84
2018-11-10T15:16:30.243Z,92.86
2018-11-10T15:18:58.547Z,92.88
2018-11-10T15:21:27.155Z,92.93
2018-11-10T15:23:55.469Z,92.55
2018-11-10T15:26:23.818Z,92.80
2018-11-10T15:28:52.130Z,92.16
2018-11-10T15:31:20.444Z,92.36
2018-11-10T15:33:48.759Z,92.10
2018-11-10T15:36:17.063Z,92.04
2018-11-10T15:38:45.551Z,92.31
2018-11-10T15:41:13.870Z,92.29
2018-11-10T15:43:42.176Z,92.15
2018-11-10T15:46:10.750Z,92.11
2018-11-10T15:48:40.328Z,92.06
2018-11-10T15:51:08.665Z,91.31
2018-11-10T15:53:36.963Z,90.91
2018-11-10T15:56:05.519Z,91.40
2018-11-10T15:58:33.831Z,90.77
2018-11-10T16:01:02.147Z,90.54
2018-11-10T16:03:30.828Z,90.96
2018-11-10T16:05:59.130Z,90.96
2018-11-10T16:08:27.462Z,91.78
2018-11-10T16:10:55.764Z,91.54
2018-11-10T16:13:24.095Z,91.57
2018-11-10T16:15:52.401Z,91.27
2018-11-10T16:18:20.727Z,90.88
2018-11-10T16:20:49.071Z,90.88
2018-11-10T16:23:17.343Z,91.46
2018-11-10T16:25:45.654Z,90.78
2018-11-10T16:28:13.983Z,91.45
2018-11-10T16:30:42.307Z,91.40
2018-11-10T16:33:10.659Z,90.79
2018-11-10T16:35:38.960Z,91.27
2018-11-10T16:38:07.291Z,90.88
2018-11-10T16:40:35.595Z,91.21
2018-11-10T16:43:03.924Z,91.18
2018-11-10T16:45:32.239Z,90.83
2018-11-10T16:48:00.551Z,90.71
2018-11-10T16:50:28.843Z,90.17
2018-11-10T16:52:57.168Z,89.62
2018-11-10T16:55:25.482Z,90.19
2018-11-10T16:57:53.794Z,90.64
2018-11-10T17:00:22.221Z,89.93
2018-11-10T17:02:50.544Z,90.78
2018-11-10T17:05:18.842Z,90.66
2018-11-10T17:07:47.184Z,90.63
2018-11-10T17:10:17.282Z,90.67
2018-11-10T17:12:45.616Z,90.01
2018-11-10T17:15:13.934Z,90.46
2018-11-10T17:17:42.261Z,91.03
2018-11-10T17:20:13.023Z,90.51
2018-11-10T17:22:41.440Z,91.00
2018-11-10T17:25:10.395Z,90.67
2018-11-10T17:27:39.100Z,90.63
2018-11-10T17:30:10.131Z,91.16
2018-11-10T17:32:38.459Z,90.83
2018-11-10T17:35:07.274Z,91.05
2018-11-10T17:37:35.691Z,90.71
2018-11-10T17:40:04.096Z,90.86
2018-11-10T17:42:32.828Z,90.70
2018-11-10T17:45:01.352Z,90.72
2018-11-10T17:47:29.667Z,91.17
2018-11-10T17:49:57.984Z,91.12
2018-11-10T17:52:26.308Z,90.66
2018-11-10T17:54:54.679Z,90.21
2018-11-10T17:57:22.951Z,90.40
2018-11-10T17:59:51.612Z,90.50
2018-11-10T18:02:20.005Z,91.01
2018-11-10T18:04:48.256Z,91.34
2018-11-10T18:07:16.575Z,91.18
2018-11-10T18:09:44.878Z,91.08
2018-11-10T18:12:13.191Z,90.22
2018-11-10T18:14:41.495Z,90.46
2018-11-10T18:17:09.808Z,90.61
2018-11-10T18:19:38.248Z,90.73
2018-11-10T18:22:06.534Z,91.07
2018-11-10T18:24:35.102Z,91.27
2018-11-10T18:27:03.532Z,91.60
2018-11-10T18:29:31.873Z,92.12
2018-11-10T18:32:00.155Z,92.16
2018-11-10T18:34:28.739Z,92.24
2018-11-10T18:36:58.012Z,92.89
2018-11-10T18:39:26.414Z,92.76
2018-11-10T18:41:54.663Z,92.71
2018-11-10T18:44:26.106Z,92.76
2018-11-10T18:46:55.680Z,93.41
2018-11-10T18:49:25.499Z,93.90
2018-11-10T18:51:55.027Z,94.16
2018-11-10T18:54:25.078Z,94.91
2018-11-10T18:56:53.613Z,95.62
2018-11-10T18:59:22.971Z,96.04
2018-11-10T19:01:52.983Z,95.90
2018-11-10T19:04:22.620Z,96.68
2018-11-10T19:06:52.283Z,96.51
2018-11-10T19:09:23.369Z,96.79
2018-11-10T19:11:52.657Z,96.85
2018-11-10T19:14:22.323Z,97.00
2018-11-10T19:16:53.916Z,96.40
2018-11-10T19:19:23.474Z,96.65
2018-11-10T19:21:52.973Z,96.74
2018-11-10T19:24:22.567Z,97.08
2018-11-10T19:26:52.274Z,97.03
2018-11-10T19:29:21.924Z,97.02
2018-11-10T19:31:51.916Z,97.04
2018-11-10T19:34:22.923Z,97.08
2018-11-10T19:36:53.349Z,97.11
2018-11-10T19:39:25.674Z,96.82
2018-11-10T19:41:54.971Z,97.11
2018-11-10T19:44:24.390Z,97.33
2018-11-10T19:46:53.827Z,97.19
2018-11-10T19:49:24.270Z,97.50
2018-11-10T19:51:52.918Z,97.26
2018-11-10T19:54:21.212Z,97.46
2018-11-10T19:56:49.539Z,97.96
2018-11-10T19:59:18.071Z,97.77
2018-11-10T20:01:46.370Z,98.08
2018-11-10T20:04:19.046Z,97.90
2018-11-10T20:06:50.288Z,98.13
2018-11-10T20:09:19.703Z,98.82
2018-11-10T20:11:54.515Z,98.73
2018-11-10T20:14:27.606Z,98.53
2018-11-10T20:16:58.859Z,98.56
2018-11-10T20:19:28.488Z,99.03
2018-11-10T20:21:57.971Z,99.06
2018-11-10T20:24:28.250Z,99.02
2018-11-10T20:26:57.645Z,98.93
2018-11-10T20:29:26.527Z,98.50
2018-11-10T20:31:57.406Z,98.42
2018-11-10T20:34:27.142Z,98.86
2018-11-10T20:36:56.721Z,98.12
2018-11-10T20:39:26.133Z,98.72
2018-11-10T20:41:55.590Z,98.23
2018-11-10T20:44:24.398Z,97.82
2018-11-10T20:46:57.461Z,97.22
2018-11-10T20:49:29.238Z,97.59
2018-11-10T20:51:57.599Z,97.50
2018-11-10T20:54:26.803Z,97.48
2018-11-10T20:56:55.895Z,96.15
2018-11-10T20:59:26.116Z,96.02
2018-11-10T21:01:55.641Z,95.81
2018-11-10T21:04:23.980Z,95.54
2018-11-10T21:06:52.312Z,95.60
2018-11-10T21:09:20.625Z,94.77
2018-11-10T21:11:48.968Z,94.82
2018-11-10T21:14:17.977Z,95.44
2018-11-10T21:16:46.313Z,95.64
2018-11-10T21:19:14.639Z,95.76
2018-11-10T21:21:42.944Z,95.97
2018-11-10T21:24:11.265Z,96.21
2018-11-10T21:26:39.854Z,96.46
2018-11-10T21:29:09.004Z,97.02
2018-11-10T21:31:38.726Z,96.99
2018-11-10T21:34:07.549Z,97.28
2018-11-10T21:36:36.503Z,97.28
2018-11-10T21:39:07.535Z,97.89
2018-11-10T21:41:35.861Z,97.69
2018-11-10T21:44:04.191Z,97.90
2018-11-10T21:46:33.566Z,97.81
2018-11-10T21:49:02.033Z,97.99
2018-11-10T21:51:30.363Z,97.59
2018-11-10T21:53:58.907Z,97.92
2018-11-10T21:56:27.219Z,98.23
2018-11-10T21:58:58.435Z,98.05
2018-11-10T22:01:26.747Z,98.03
2018-11-10T22:03:55.075Z,97.63
2018-11-10T22:06:23.428Z,97.52
2018-11-10T22:08:51.777Z,97.25
2018-11-10T22:11:20.475Z,97.04
2018-11-10T22:13:48.776Z,97.79
2018-11-10T22:16:18.359Z,97.84
2018-11-10T22:18:46.687Z,97.49
2018-11-10T22:21:15.228Z,97.85
2018-11-10T22:23:43.540Z,97.51
2018-11-10T22:26:11.843Z,97.33
2018-11-10T22:28:41.296Z,97.69
2018-11-10T22:31:10.475Z,97.29
2018-11-10T22:33:38.775Z,97.29
2018-11-10T22:36:07.094Z,97.45
2018-11-10T22:38:35.404Z,97.24
2018-11-10T22:41:03.715Z,97.37
2018-11-10T22:43:34.201Z,97.49
2018-11-10T22:46:02.501Z,97.46
2018-11-10T22:48:30.818Z,96.62
2018-11-10T22:50:59.915Z,95.52
2018-11-10T22:53:28.276Z,96.58
2018-11-10T22:55:56.595Z,96.90
2018-11-10T22:58:28.667Z,96.93
2018-11-10T23:01:02.030Z,97.09
2018-11-10T23:03:31.467Z,96.49
2018-11-10T23:05:59.760Z,96.69
2018-11-10T23:08:28.052Z,97.00
2018-11-10T23:10:56.470Z,97.21
2018-11-10T23:13:24.790Z,96.32
2018-11-10T23:15:53.106Z,96.13
2018-11-10T23:18:21.431Z,95.91
2018-11-10T23:20:49.699Z,96.43
2018-11-10T23:23:18.051Z,95.62
2018-11-10T23:25:46.335Z,96.19
2018-11-10T23:28:14.638Z,96.09
2018-11-10T23:30:42.940Z,95.96
2018-11-10T23:33:11.238Z,95.88
2018-11-10T23:35:39.575Z,94.94
2018-11-10T23:38:07.889Z,95.45
2018-11-10T23:40:36.195Z,95.05
2018-11-10T23:43:04.583Z,95.36
2018-11-10T23:45:32.861Z,96.14
2018-11-10T23:48:01.163Z,95.92
2018-11-10T23:50:29.476Z,96.27
2018-11-10T23:52:57.788Z,95.80
2018-11-10T23:55:26.068Z,96.07
2018-11-10T23:57:54.358Z,96.53
